Time;durP1;ratioP1;P1;durP2;ratioP2;P2;SDS_P1;SDS_P2;PMS_P1;PMS_P2;Temp;Humidity;BMP_temperature;BMP_pressure;BME280_temperature;BME280_humidity;BME280_pressure;Samples;Min_cycle;Max_cycle;Signal;HPM_P1;HPM_P2
2023/01/16 00:02:46;;;;;;;1.45;0.35;;;;;;;19.51;37.11;99560.56;16129717;19;131165;-47
2023/01/16 00:08:07;;;;;;;2.20;0.30;;;;;;;19.48;36.88;99555.59;16131127;19;130085;-50
2023/01/16 00:13:29;;;;;;;2.45;0.50;;;;;;;19.44;37.30;99535.09;16128139;19;129617;-47
2023/01/16 00:18:51;;;;;;;2.75;0.50;;;;;;;19.41;37.18;99521.81;16131596;19;129267;-49
2023/01/16 00:24:13;;;;;;;2.08;0.43;;;;;;;19.37;36.88;99505.72;16130276;19;129454;-49
2023/01/16 00:29:35;;;;;;;1.80;0.20;;;;;;;19.34;37.11;99497.16;16131277;19;130391;-46
2023/01/16 00:34:57;;;;;;;2.17;0.70;;;;;;;19.32;36.96;99491.88;16129027;19;129675;-46
2023/01/16 00:40:19;;;;;;;1.08;0.20;;;;;;;19.29;37.28;99480.53;16128145;19;130687;-52
2023/01/16 00:45:40;;;;;;;1.10;0.30;;;;;;;19.25;37.10;99468.38;16129558;19;129650;-50
2023/01/16 00:51:03;;;;;;;1.40;0.50;;;;;;;19.21;36.92;99452.31;16130032;19;130442;-49
2023/01/16 00:56:24;;;;;;;1.20;0.20;;;;;;;19.20;37.19;99435.94;16127403;19;134656;-46
2023/01/16 01:01:46;;;;;;;0.82;0.30;;;;;;;19.17;37.28;99425.41;16129024;19;129789;-49
2023/01/16 01:07:08;;;;;;;0.38;0.25;;;;;;;19.15;37.23;99416.56;16128106;19;129651;-54
2023/01/16 01:12:30;;;;;;;0.73;0.22;;;;;;;19.12;36.88;99403.25;16131735;19;129553;-55
2023/01/16 01:17:52;;;;;;;3.83;0.30;;;;;;;19.10;37.09;99389.69;16127253;19;130518;-54
2023/01/16 01:23:14;;;;;;;0.75;0.20;;;;;;;19.08;37.38;99364.22;16132897;19;129851;-55
2023/01/16 01:28:36;;;;;;;1.65;0.30;;;;;;;19.05;37.26;99357.31;16130535;19;129876;-55
2023/01/16 01:33:58;;;;;;;1.25;0.20;;;;;;;19.03;36.84;99334.59;16128091;19;129387;-52
2023/01/16 01:39:19;;;;;;;1.27;0.38;;;;;;;19.01;36.85;99328.50;16127122;19;133163;-52
2023/01/16 01:44:47;;;;;;;1.80;0.20;;;;;;;18.99;37.12;99316.06;16126346;19;129307;-51
2023/01/16 01:50:31;;;;;;;0.30;0.10;;;;;;;19.00;37.24;99301.09;16127664;19;130194;-48
2023/01/16 01:55:55;;;;;;;0.85;0.30;;;;;;;18.94;36.90;99275.34;16123195;19;129457;-47
2023/01/16 02:01:16;;;;;;;1.30;0.30;;;;;;;18.91;36.86;99256.53;16121004;19;129400;-47
2023/01/16 02:06:44;;;;;;;0.63;0.20;;;;;;;;;;16123676;19;129170;-47
2023/01/16 02:12:08;;;;;;;0.40;0.20;;;;;;;18.88;37.26;99210.00;16121928;19;129702;-47
2023/01/16 02:23:29;;;;;;;0.65;0.25;;;;;;;18.82;37.02;99183.47;16119690;19;130214;-47
2023/01/16 02:29:15;;;;;;;0.77;0.30;;;;;;;18.81;37.15;99171.53;16122453;19;129678;-47
2023/01/16 02:34:57;;;;;;;1.33;0.30;;;;;;;18.79;37.03;99151.59;16136194;19;129501;-47
2023/01/16 02:40:25;;;;;;;1.27;0.30;;;;;;;18.75;36.80;99129.19;16137370;19;129000;-47
2023/01/16 02:45:57;;;;;;;0.65;0.20;;;;;;;18.74;37.14;99113.69;16138080;19;129516;-46
2023/01/16 02:51:45;;;;;;;0.88;0.20;;;;;;;18.73;37.06;99092.66;16137316;19;129512;-49
2023/01/16 02:57:22;;;;;;;1.40;0.47;;;;;;;18.71;36.86;99067.19;16134424;19;129803;-48
2023/01/16 03:02:43;;;;;;;0.57;0.20;;;;;;;18.67;36.53;99043.97;16136495;19;130076;-47
2023/01/16 03:08:34;;;;;;;0.47;0.10;;;;;;;18.67;36.79;99024.59;16135138;19;130131;-49
2023/01/16 03:14:17;;;;;;;0.70;0.20;;;;;;;18.65;36.81;98999.13;16135359;19;129521;-46
2023/01/16 03:19:55;;;;;;;0.50;0.20;;;;;;;18.63;36.57;98973.66;16136278;19;130211;-46
2023/01/16 03:25:38;;;;;;;1.00;0.30;;;;;;;18.62;36.47;98955.38;16132567;19;128947;-46
2023/01/16 03:31:35;;;;;;;0.93;0.28;;;;;;;18.60;36.28;98932.69;16132806;19;130325;-48
2023/01/16 03:37:05;;;;;;;0.30;0.10;;;;;;;18.56;36.34;98906.72;16132202;19;130633;-46
2023/01/16 03:42:36;;;;;;;0.60;0.20;;;;;;;18.55;36.66;98896.78;16131063;19;129876;-46
2023/01/16 03:48:13;;;;;;;0.77;0.30;;;;;;;18.54;36.54;98878.50;16130869;19;129776;-48
2023/01/16 03:53:41;;;;;;;0.77;0.28;;;;;;;18.51;36.60;98862.47;16132836;19;129572;-48
2023/01/16 03:59:03;;;;;;;0.75;0.22;;;;;;;18.49;36.48;98835.09;16131562;19;129498;-46
2023/01/16 04:04:46;;;;;;;0.30;0.20;;;;;;;18.49;36.27;98814.88;16131168;19;131931;-51
2023/01/16 04:10:15;;;;;;;1.10;0.30;;;;;;;18.45;36.46;98793.34;16130636;19;129553;-47
2023/01/16 04:15:44;;;;;;;0.52;0.20;;;;;;;18.44;35.93;98775.09;16133631;19;129562;-48
2023/01/16 04:21:07;;;;;;;0.50;0.20;;;;;;;18.41;35.89;98758.22;16130240;19;129486;-47
2023/01/16 04:26:29;;;;;;;1.00;0.40;;;;;;;18.40;36.14;98729.72;16129548;19;129606;-47
2023/01/16 04:31:50;;;;;;;0.75;0.20;;;;;;;18.38;36.07;98704.25;16128796;19;129998;-49
2023/01/16 04:37:14;;;;;;;1.15;0.30;;;;;;;18.37;35.75;98686.00;16129848;19;129323;-46
2023/01/16 04:42:35;;;;;;;1.02;0.40;;;;;;;18.36;35.62;98664.16;16130068;19;129675;-46
2023/01/16 04:47:57;;;;;;;1.40;0.40;;;;;;;18.36;35.74;98636.47;16129543;19;129664;-49
2023/01/16 04:53:19;;;;;;;1.08;0.30;;;;;;;18.34;35.96;98602.72;16125584;19;129800;-48
2023/01/16 04:58:41;;;;;;;1.08;0.30;;;;;;;18.31;35.72;98570.94;16129646;19;129694;-48
2023/01/16 05:04:04;;;;;;;2.55;0.47;;;;;;;18.31;35.42;98559.88;16128689;19;129366;-48
2023/01/16 05:09:26;;;;;;;0.95;0.30;;;;;;;18.29;35.64;98524.19;16126893;19;131730;-51
2023/01/16 05:14:48;;;;;;;0.90;0.40;;;;;;;18.27;35.69;98498.78;16128745;19;129590;-49
2023/01/16 05:20:10;;;;;;;1.38;0.40;;;;;;;18.27;35.43;98492.41;16128130;19;129675;-46
2023/01/16 05:25:32;;;;;;;2.53;0.30;;;;;;;18.25;35.51;98472.50;16126398;19;129438;-49
2023/01/16 05:30:53;;;;;;;2.42;0.50;;;;;;;18.24;35.36;98459.78;16128175;19;129511;-48
2023/01/16 05:36:15;;;;;;;1.05;0.30;;;;;;;18.22;35.17;98437.13;16123956;19;129461;-48
2023/01/16 05:41:37;;;;;;;1.13;0.40;;;;;;;18.21;35.01;98432.75;16124361;19;129282;-51
2023/01/16 05:46:59;;;;;;;2.75;0.40;;;;;;;18.19;35.06;98407.31;16125849;19;129760;-46
2023/01/16 05:52:20;;;;;;;0.95;0.30;;;;;;;18.17;34.76;98379.13;16123636;19;129959;-49
2023/01/16 05:57:42;;;;;;;1.77;0.30;;;;;;;18.16;34.98;98356.16;16123101;19;129503;-48
2023/01/16 06:03:05;;;;;;;1.63;0.50;;;;;;;18.14;34.94;98339.88;16123710;19;130446;-49
2023/01/16 06:08:27;;;;;;;1.73;0.50;;;;;;;18.13;35.05;98316.09;16121395;19;129784;-51
2023/01/16 06:13:49;;;;;;;1.55;0.50;;;;;;;18.13;34.79;98309.75;16125223;19;129610;-49
2023/01/16 06:19:11;;;;;;;0.80;0.30;;;;;;;18.12;34.66;98274.91;16119728;19;129574;-47
2023/01/16 06:24:32;;;;;;;1.52;0.60;;;;;;;18.12;35.46;98258.31;16122085;19;129862;-49
2023/01/16 06:29:54;;;;;;;3.03;0.55;;;;;;;18.10;34.81;98247.53;16114457;19;130112;-50
2023/01/16 06:35:17;;;;;;;9.30;0.77;;;;;;;18.10;35.32;98225.41;16124614;19;129510;-47
2023/01/16 06:40:39;;;;;;;3.63;0.55;;;;;;;18.08;35.39;98200.00;16125202;19;129546;-48
2023/01/16 06:46:00;;;;;;;3.13;0.70;;;;;;;18.08;34.95;98185.34;16124642;19;130104;-50
2023/01/16 06:51:22;;;;;;;2.17;0.35;;;;;;;18.06;35.13;98160.75;16123244;19;129736;-49
2023/01/16 06:56:44;;;;;;;2.15;0.43;;;;;;;18.04;35.35;98146.41;16125184;19;129203;-48
2023/01/16 07:02:08;;;;;;;2.30;0.52;;;;;;;18.04;35.12;98134.53;16118745;19;129165;-47
2023/01/16 07:07:30;;;;;;;4.13;0.43;;;;;;;18.02;35.01;98129.31;16118134;19;129577;-50
2023/01/16 07:12:52;;;;;;;3.15;0.57;;;;;;;18.01;35.34;98119.38;16122471;19;129545;-48
2023/01/16 07:24:03;;;;;;;2.33;0.50;;;;;;;17.97;35.20;98110.06;16135596;19;129017;-47
2023/01/16 07:29:28;;;;;;;4.95;0.57;;;;;;;17.95;34.83;98087.44;16136175;19;131011;-48
2023/01/16 07:34:49;;;;;;;2.22;0.38;;;;;;;17.94;34.86;98074.72;16136767;19;129515;-48
2023/01/16 07:40:12;;;;;;;1.30;0.60;;;;;;;17.92;35.04;98071.44;16131655;19;129116;-48
2023/01/16 07:45:33;;;;;;;2.80;0.40;;;;;;;17.91;35.18;98064.28;16133296;19;130212;-50
2023/01/16 07:50:57;;;;;;;5.78;0.65;;;;;;;17.90;34.96;98057.09;16132634;19;129549;-49
2023/01/16 07:56:19;;;;;;;3.00;0.45;;;;;;;17.89;35.12;98058.25;16131518;19;129763;-48
2023/01/16 08:01:44;;;;;;;4.35;0.47;;;;;;;17.88;35.03;98048.31;16134031;19;130342;-49
2023/01/16 08:07:06;;;;;;;2.92;0.50;;;;;;;17.87;34.98;98038.38;16132753;19;129628;-49
2023/01/16 08:12:27;;;;;;;3.15;0.35;;;;;;;17.85;35.19;98033.16;16131556;19;129709;-47
2023/01/16 08:17:49;;;;;;;3.38;0.40;;;;;;;17.83;34.98;98019.66;16132972;19;129448;-52
2023/01/16 08:23:12;;;;;;;3.58;0.52;;;;;;;17.81;35.12;98019.16;16129340;19;129187;-48
2023/01/16 08:28:33;;;;;;;4.72;0.25;;;;;;;17.81;35.35;98015.53;16125938;19;132222;-48
2023/01/16 08:33:55;;;;;;;2.95;0.28;;;;;;;17.80;35.15;98000.91;16130570;19;129704;-46
2023/01/16 08:39:17;;;;;;;1.42;0.25;;;;;;;17.78;35.23;97994.06;16128014;19;129344;-51
2023/01/16 08:56:21;;;;;;;0.90;0.30;;;;;;;17.74;35.02;97976.47;16121247;19;134475;-45
2023/01/16 09:01:43;;;;;;;1.15;0.25;;;;;;;17.73;35.30;97970.09;16121659;19;130062;-48
2023/01/16 09:07:05;;;;;;;1.23;0.40;;;;;;;17.73;35.01;97961.81;16122085;19;135650;-47
2023/01/16 09:18:07;;;;;;;0.50;0.20;;;;;;;17.72;35.06;97940.84;16120481;19;130223;-50
2023/01/16 09:23:29;;;;;;;3.13;0.32;;;;;;;17.71;35.09;97927.31;16131559;19;129022;-53
2023/01/16 09:28:51;;;;;;;2.95;0.20;;;;;;;17.70;34.85;97926.50;16125821;19;129188;-46
2023/01/16 09:34:12;;;;;;;3.08;0.30;;;;;;;17.70;35.01;97918.22;16124812;19;129527;-48
2023/01/16 09:39:34;;;;;;;0.95;0.17;;;;;;;17.69;34.94;97902.75;16123423;19;130155;-49
2023/01/16 09:45:06;;;;;;;7.47;0.38;;;;;;;17.70;35.29;97893.34;16124580;19;128874;-47
2023/01/16 09:50:43;;;;;;;6.95;0.40;;;;;;;17.70;34.91;97893.34;16123078;19;129634;-50
2023/01/16 10:01:58;;;;;;;2.03;0.10;;;;;;;17.70;34.94;97873.97;16125136;19;130174;-48
2023/01/16 10:07:38;;;;;;;1.63;0.30;;;;;;;17.70;35.05;97871.22;16123887;19;129353;-49
2023/01/16 10:13:15;;;;;;;3.10;0.25;;;;;;;17.68;35.05;97859.66;16125575;19;129671;-50
2023/01/16 10:19:01;;;;;;;12.68;0.38;;;;;;;17.68;34.83;97849.38;16124314;19;128920;-51
2023/01/16 10:24:52;;;;;;;3.90;0.20;;;;;;;17.67;35.22;97839.47;16123926;19;129456;-48
2023/01/16 10:30:21;;;;;;;1.90;0.30;;;;;;;17.66;34.93;97820.44;16123521;19;129384;-47
2023/01/16 10:35:45;;;;;;;2.25;0.30;;;;;;;17.65;35.09;97808.56;16124677;19;130170;-46
2023/01/16 10:52:39;;;;;;;0.82;0.32;;;;;;;17.62;34.89;97772.44;16129990;19;129623;-48
2023/01/16 10:58:05;;;;;;;2.53;0.20;;;;;;;17.62;34.99;97766.91;16141517;19;129074;-46
2023/01/16 11:03:33;;;;;;;1.45;0.20;;;;;;;17.63;35.27;97760.25;16153984;19;129847;-48
2023/01/16 11:09:03;;;;;;;0.35;0.17;;;;;;;17.61;34.97;97752.28;16194994;19;128866;-51
2023/01/16 11:20:38;;;;;;;2.17;0.10;;;;;;;17.62;35.10;97714.38;16195497;19;130924;-54
2023/01/16 11:26:00;;;;;;;2.75;0.68;;;;;;;17.60;35.21;97698.13;16198560;19;133557;-49
2023/01/16 11:31:25;;;;;;;1.80;0.15;;;;;;;17.58;34.77;97694.84;16195893;19;128928;-52
2023/01/16 11:36:47;;;;;;;0.50;0.20;;;;;;;17.57;34.88;97682.16;16192432;19;129408;-52
2023/01/16 11:47:54;;;;;;;1.60;0.20;;;;;;;17.54;35.00;97669.81;16195795;19;128790;-51
2023/01/16 11:53:16;;;;;;;0.08;0.00;;;;;;;17.53;35.25;97668.16;16193327;19;129019;-50
2023/01/16 11:59:15;;;;;;;0.60;0.13;;;;;;;17.54;34.86;97657.88;16194481;19;129054;-51
2023/01/16 12:05:53;;;;;;;2.17;0.45;;;;;;;17.51;34.99;97653.81;16194043;19;128833;-49
2023/01/16 12:10:39;;;;;;;0.00;0.00;;;;;;;17.52;35.28;97646.38;16194844;19;128722;-46
2023/01/16 12:16:00;;;;;;;;;;;;;;;17.46;35.25;97637.41;16193599;19;129235;-47
2023/01/16 12:21:41;;;;;;;0.40;0.10;;;;;;;17.49;35.09;97622.91;16195158;19;131511;-52
2023/01/16 12:27:32;;;;;;;0.60;0.10;;;;;;;17.48;35.18;97617.72;16197763;19;130331;-51
2023/01/16 12:33:26;;;;;;;0.30;0.08;;;;;;;17.48;35.26;97609.44;16198774;19;130686;-46
2023/01/16 12:39:00;;;;;;;0.57;0.10;;;;;;;17.46;35.18;97607.00;16195134;19;129511;-48
2023/01/16 12:44:50;;;;;;;0.75;0.15;;;;;;;17.45;35.41;97599.84;16193065;19;128633;-47
2023/01/16 12:50:21;;;;;;;0.08;0.03;;;;;;;17.44;35.29;97600.97;16194702;19;128784;-47
2023/01/16 12:56:27;;;;;;;0.40;0.10;;;;;;;17.44;35.62;97602.91;16190937;19;129358;-48
2023/01/16 13:01:59;;;;;;;0.10;0.00;;;;;;;17.42;35.34;97605.16;16193300;19;129602;-48
2023/01/16 13:07:21;;;;;;;0.10;0.00;;;;;;;17.41;35.45;97614.63;16196933;19;129082;-50
2023/01/16 13:19:04;;;;;;;0.05;0.05;;;;;;;17.38;35.50;97588.41;16193097;19;131222;-50
2023/01/16 13:24:33;;;;;;;0.43;0.00;;;;;;;17.37;35.40;97593.16;16181583;19;133794;-51
2023/01/16 13:30:02;;;;;;;1.33;0.20;;;;;;;17.37;35.94;97587.63;16184615;19;130617;-52
2023/01/16 13:35:39;;;;;;;0.40;0.10;;;;;;;17.38;35.82;97582.91;16185241;19;129216;-48
2023/01/16 13:41:21;;;;;;;2.65;0.10;;;;;;;17.38;36.00;97580.13;16188268;19;129060;-47
2023/01/16 13:46:49;;;;;;;3.47;1.00;;;;;;;17.35;35.73;97575.25;16187563;19;129069;-51
2023/01/16 13:52:31;;;;;;;5.60;1.65;;;;;;;17.36;35.83;97574.94;16185128;19;129445;-51
2023/01/16 13:58:06;;;;;;;7.03;2.20;;;;;;;17.35;35.76;97572.50;16189238;19;128827;-50
2023/01/16 14:03:31;;;;;;;3.00;1.90;;;;;;;17.33;35.97;97575.56;16158661;19;129949;-55
2023/01/16 14:09:05;;;;;;;5.70;1.65;;;;;;;17.34;36.05;97565.34;16124988;19;129557;-57
2023/01/16 14:20:48;;;;;;;4.47;2.40;;;;;;;17.32;36.17;97570.38;16125253;19;129475;-55
2023/01/16 14:26:19;;;;;;;3.42;2.30;;;;;;;17.32;36.04;97573.13;16135862;19;129695;-51
2023/01/16 14:32:03;;;;;;;6.45;1.90;;;;;;;17.31;36.21;97572.31;16150465;19;129656;-52
2023/01/16 14:37:30;;;;;;;2.58;1.90;;;;;;;17.30;36.16;97575.41;16147600;19;130049;-56
2023/01/16 15:00:19;;;;;;;5.53;1.65;;;;;;;17.24;36.53;97558.94;16180182;19;128780;-46
2023/01/16 15:06:04;;;;;;;3.47;1.50;;;;;;;17.26;36.57;97563.34;16179083;19;129559;-51
2023/01/16 15:11:41;;;;;;;3.60;1.33;;;;;;;17.22;36.59;97564.00;16176471;19;129312;-53
2023/01/16 15:22:55;;;;;;;2.60;1.23;;;;;;;17.20;36.70;97560.75;16181516;19;129883;-51
2023/01/16 15:29:00;;;;;;;3.40;2.03;;;;;;;17.21;36.23;97578.13;16185860;19;129675;-50
2023/01/16 15:34:26;;;;;;;4.43;1.50;;;;;;;17.19;36.73;97577.63;16197208;19;129926;-48
2023/01/16 15:39:50;;;;;;;1.98;1.30;;;;;;;17.17;36.80;97586.22;16186050;19;129393;-46
2023/01/16 15:51:15;;;;;;;2.65;1.20;;;;;;;17.17;36.94;97600.03;16130677;19;129683;-47
2023/01/16 15:56:41;;;;;;;1.88;1.13;;;;;;;17.16;36.73;97609.47;16139424;19;128914;-47
2023/01/16 16:02:29;;;;;;;2.22;0.93;;;;;;;17.16;36.99;97626.03;16131475;19;129473;-50
2023/01/16 16:07:51;;;;;;;1.55;0.88;;;;;;;17.14;36.89;97633.00;16131327;19;129468;-49
2023/01/16 16:13:17;;;;;;;1.50;0.80;;;;;;;17.14;36.86;97639.34;16131643;19;129464;-47
2023/01/16 16:18:39;;;;;;;;;;;;;;;17.11;36.75;97656.53;16132140;19;129554;-48
2023/01/16 16:24:10;;;;;;;1.05;0.70;;;;;;;17.14;36.80;97677.22;16132099;19;128974;-48
2023/01/16 16:29:33;;;;;;;2.70;0.95;;;;;;;17.10;36.74;97696.38;16126164;19;129649;-47
2023/01/16 16:34:56;;;;;;;1.75;0.85;;;;;;;17.10;36.55;97710.19;16126545;19;129612;-48
2023/01/16 16:40:19;;;;;;;1.30;0.88;;;;;;;17.09;36.60;97722.34;16127671;19;131459;-48
2023/01/16 16:45:40;;;;;;;1.02;0.60;;;;;;;17.07;36.43;97732.88;16129349;19;129466;-59
2023/01/16 16:51:25;;;;;;;0.57;0.47;;;;;;;17.10;36.15;97735.03;16125845;19;131027;-47
2023/01/16 16:56:51;;;;;;;3.17;0.80;;;;;;;17.08;36.31;97751.09;16126234;19;130116;-50
2023/01/16 17:02:13;;;;;;;3.15;0.77;;;;;;;17.10;36.68;97767.34;16125840;19;129933;-48
2023/01/16 17:07:36;;;;;;;3.33;0.70;;;;;;;17.08;36.32;97770.44;16124576;19;129373;-49
2023/01/16 17:12:57;;;;;;;2.67;0.68;;;;;;;17.06;36.54;97790.06;16128411;19;129700;-49
2023/01/16 17:18:19;;;;;;;2.95;0.82;;;;;;;17.06;35.98;97805.81;16121612;19;129806;-48
2023/01/16 17:23:42;;;;;;;1.85;0.60;;;;;;;17.02;35.80;97821.38;16126495;19;129964;-51
2023/01/16 17:29:04;;;;;;;1.45;0.60;;;;;;;17.00;36.28;97832.75;16122861;19;129569;-48
2023/01/16 17:34:26;;;;;;;2.63;0.40;;;;;;;17.00;35.69;97859.53;16122300;19;129836;-49
2023/01/16 17:39:48;;;;;;;1.80;0.55;;;;;;;16.98;35.87;97862.63;16126429;19;129208;-47
2023/01/16 17:51:12;;;;;;;0.93;0.40;;;;;;;16.99;35.74;97899.31;16123973;19;129695;-50
2023/01/16 17:56:34;;;;;;;3.13;0.40;;;;;;;16.97;35.69;97907.91;16122343;19;129140;-46
2023/01/16 18:01:56;;;;;;;1.73;0.43;;;;;;;16.97;35.73;97923.69;16122385;19;128975;-49
2023/01/16 18:07:18;;;;;;;2.13;0.60;;;;;;;16.96;35.57;97941.38;16121680;19;131065;-50
2023/01/16 18:18:20;;;;;;;7.65;0.95;;;;;;;17.00;35.88;97972.75;16123638;19;135379;-49
2023/01/16 18:23:42;;;;;;;6.07;0.80;;;;;;;17.06;36.67;97979.81;16124111;19;129245;-49
2023/01/16 18:29:03;;;;;;;7.13;0.93;;;;;;;17.37;36.73;97995.75;16181395;19;129200;-54
2023/01/16 18:34:25;;;;;;;11.43;1.17;;;;;;;17.86;35.95;98007.16;16187884;19;130061;-55
2023/01/16 19:02:54;;;;;;;16.45;1.02;;;;;;;19.99;34.62;98051.03;16191919;19;129002;-50
2023/01/16 19:08:22;;;;;;;13.43;0.70;;;;;;;20.11;34.63;98057.91;16189285;19;128911;-53
2023/01/16 19:13:46;;;;;;;11.40;0.90;;;;;;;20.08;34.86;98064.91;16195040;19;128910;-55
2023/01/16 19:19:07;;;;;;;10.65;1.15;;;;;;;19.98;34.83;98070.75;16208718;19;128901;-55
2023/01/16 19:24:31;;;;;;;7.25;0.55;;;;;;;19.83;35.03;98085.91;16204486;19;129024;-56
2023/01/16 19:29:52;;;;;;;5.32;0.70;;;;;;;19.66;35.28;98086.69;16204816;19;128687;-52
2023/01/16 19:35:14;;;;;;;11.23;0.77;;;;;;;19.50;35.42;98081.59;16205181;19;129438;-52
2023/01/16 19:40:36;;;;;;;13.52;0.90;;;;;;;19.35;35.90;98099.47;16205732;19;128687;-51
2023/01/16 19:51:54;;;;;;;8.40;0.50;;;;;;;19.32;35.70;98141.69;16198981;19;129157;-52
2023/01/16 19:57:16;;;;;;;5.55;0.45;;;;;;;19.57;35.67;98133.81;16202949;19;128871;-54
2023/01/16 20:02:38;;;;;;;6.00;0.60;;;;;;;19.89;35.21;98134.56;16198605;19;130163;-47
2023/01/16 20:08:00;;;;;;;5.45;0.60;;;;;;;20.18;35.16;98127.63;16128549;19;131519;-50
2023/01/16 20:13:22;;;;;;;3.15;0.35;;;;;;;20.43;35.06;98142.66;16128051;19;128873;-49
2023/01/16 20:18:44;;;;;;;2.08;0.50;;;;;;;20.68;34.46;98142.13;16128152;19;129860;-48
2023/01/16 20:24:06;;;;;;;10.80;0.65;;;;;;;20.84;34.72;98140.53;16118616;19;130928;-53
2023/01/16 20:29:29;;;;;;;9.70;0.57;;;;;;;21.00;34.29;98145.56;16108429;19;129480;-55
2023/01/16 20:34:50;;;;;;;6.63;0.50;;;;;;;21.12;34.05;98159.59;16106610;19;130141;-47
2023/01/16 20:40:16;;;;;;;4.22;0.40;;;;;;;21.24;33.72;98170.03;16110710;19;129369;-50
2023/01/16 20:45:50;;;;;;;2.10;0.45;;;;;;;21.35;33.73;98187.19;16102767;19;129697;-51
2023/01/16 20:51:13;;;;;;;8.65;0.98;;;;;;;21.39;33.70;98188.16;16106967;19;129379;-50
2023/01/16 20:56:35;;;;;;;4.80;0.73;;;;;;;21.43;33.59;98189.13;16122234;19;129220;-52
2023/01/16 21:01:58;;;;;;;11.75;0.90;;;;;;;21.47;33.67;98194.84;16122316;19;129344;-47
2023/01/16 21:07:20;;;;;;;19.40;1.55;;;;;;;21.44;33.90;98196.31;16117116;19;129410;-48
2023/01/16 21:24:02;;;;;;;11.50;0.73;;;;;;;21.08;34.38;98235.66;16124184;19;130626;-52
2023/01/16 21:29:24;;;;;;;12.18;1.17;;;;;;;20.92;34.78;98261.16;16120523;19;129535;-49
2023/01/16 21:34:46;;;;;;;13.38;0.90;;;;;;;20.76;34.65;98255.28;16121375;19;129820;-51
2023/01/16 21:40:09;;;;;;;10.50;1.58;;;;;;;20.63;34.59;98262.56;16117366;19;129668;-49
2023/01/16 21:51:11;;;;;;;13.00;1.27;;;;;;;20.21;34.56;98296.28;16114962;19;129774;-48
2023/01/16 21:56:33;;;;;;;12.55;0.93;;;;;;;20.08;34.93;98302.75;16109754;19;129573;-50
2023/01/16 22:01:55;;;;;;;12.35;1.33;;;;;;;19.93;34.73;98304.81;16111860;19;131824;-48
2023/01/16 22:07:17;;;;;;;7.50;1.00;;;;;;;19.80;35.26;98314.06;16112182;19;130061;-50
2023/01/16 22:18:32;;;;;;;8.40;0.80;;;;;;;19.53;35.17;98344.38;16106555;19;129804;-49
2023/01/16 22:23:59;;;;;;;2.22;0.50;;;;;;;19.43;35.32;98377.09;16106895;19;130014;-51
2023/01/16 22:29:20;;;;;;;5.18;1.00;;;;;;;19.30;35.34;98374.06;16093334;19;130718;-50
2023/01/16 22:34:42;;;;;;;5.95;0.70;;;;;;;19.17;35.12;98384.00;16103572;19;131344;-49
2023/01/16 22:40:04;;;;;;;4.18;0.50;;;;;;;19.08;35.44;98389.47;16110061;19;130092;-47
2023/01/16 22:51:07;;;;;;;3.47;0.45;;;;;;;18.93;35.33;98417.53;16122683;19;129929;-47
2023/01/16 22:56:29;;;;;;;2.40;0.30;;;;;;;18.86;35.44;98425.41;16136762;19;130157;-48
2023/01/16 23:01:51;;;;;;;3.22;0.60;;;;;;;18.80;35.76;98444.09;16136349;19;129567;-49
2023/01/16 23:07:13;;;;;;;2.95;0.30;;;;;;;18.75;35.54;98447.00;16133011;19;129342;-49
2023/01/16 23:12:35;;;;;;;2.67;0.60;;;;;;;18.69;35.73;98443.50;16135968;19;129280;-47
2023/01/16 23:17:57;;;;;;;2.63;0.40;;;;;;;18.65;35.81;98452.69;16135523;19;129570;-48
2023/01/16 23:23:20;;;;;;;3.17;0.30;;;;;;;18.60;36.08;98453.63;16133806;19;130029;-49
2023/01/16 23:28:49;;;;;;;2.60;0.40;;;;;;;18.57;36.19;98455.06;16132817;19;129920;-49
2023/01/16 23:34:12;;;;;;;0.82;0.40;;;;;;;18.52;35.86;98465.41;16129714;19;129662;-48
2023/01/16 23:39:34;;;;;;;3.67;0.32;;;;;;;18.48;36.20;98475.44;16128265;19;129465;-47
2023/01/16 23:44:56;;;;;;;3.55;0.70;;;;;;;18.45;36.05;98486.03;16129922;19;130177;-48
2023/01/16 23:50:17;;;;;;;3.55;0.50;;;;;;;18.41;36.38;98481.38;16130459;19;129722;-49
2023/01/16 23:55:39;;;;;;;2.17;0.43;;;;;;;18.38;36.36;98491.09;16130706;19;129562;-49
